createdAt,value
2022-08-07T00:02:58.171Z,25.60
2022-08-07T00:05:55.373Z,20.20
2022-08-07T00:08:52.597Z,24.60
2022-08-07T00:11:55.459Z,24.40
2022-08-07T00:14:53.934Z,21.40
2022-08-07T00:17:51.621Z,27.60
2022-08-07T00:20:49.802Z,22.20
2022-08-07T00:23:46.777Z,21.60
2022-08-07T00:26:58.896Z,19.00
2022-08-07T00:30:05.674Z,19.20
2022-08-07T00:33:18.457Z,24.80
2022-08-07T00:36:17.446Z,18.60
2022-08-07T00:39:16.511Z,24.80
2022-08-07T00:42:14.341Z,22.40
2022-08-07T00:45:16.375Z,24.60
2022-08-07T00:48:13.470Z,25.80
2022-08-07T00:51:10.353Z,23.00
2022-08-07T00:54:07.749Z,21.80
2022-08-07T00:57:10.553Z,20.00
2022-08-07T01:00:10.090Z,24.00
2022-08-07T01:03:08.425Z,23.20
2022-08-07T01:06:09.803Z,20.60
2022-08-07T01:09:09.231Z,23.80
2022-08-07T01:12:29.648Z,25.80
2022-08-07T01:15:35.879Z,24.60
2022-08-07T01:18:42.611Z,26.60
2022-08-07T01:21:39.670Z,21.40
2022-08-07T01:24:37.629Z,19.60
2022-08-07T01:27:35.599Z,22.60
2022-08-07T01:30:33.575Z,22.60
2022-08-07T01:33:54.979Z,21.40
2022-08-07T01:36:52.440Z,22.00
2022-08-07T01:40:00.867Z,24.40
2022-08-07T01:43:00.374Z,23.00
2022-08-07T01:46:02.378Z,23.60
2022-08-07T01:49:00.278Z,20.00
2022-08-07T01:52:03.211Z,17.20
2022-08-07T01:55:02.037Z,17.40
2022-08-07T01:58:28.970Z,20.60
2022-08-07T02:02:01.980Z,22.80
2022-08-07T02:04:57.489Z,20.40
2022-08-07T02:07:58.844Z,24.40
2022-08-07T02:11:03.280Z,18.60
2022-08-07T02:14:02.823Z,7.80
2022-08-07T02:17:03.152Z,24.80
2022-08-07T02:20:06.993Z,21.80
2022-08-07T02:23:07.736Z,22.80
2022-08-07T02:26:30.698Z,24.80
2022-08-07T02:29:22.583Z,19.80
2022-08-07T02:32:23.456Z,27.60
2022-08-07T02:36:28.752Z,21.00
2022-08-07T02:38:50.602Z,20.20
2022-08-07T02:41:55.142Z,25.20
2022-08-07T02:44:54.988Z,19.60
2022-08-07T02:47:56.699Z,23.80
2022-08-07T02:51:01.223Z,20.20
2022-08-07T02:54:01.035Z,24.20
2022-08-07T02:57:00.515Z,21.60
2022-08-07T03:00:01.272Z,22.60
2022-08-07T03:03:06.030Z,21.20
2022-08-07T03:06:05.895Z,23.60
2022-08-07T03:09:14.413Z,21.40
2022-08-07T03:12:21.706Z,20.20
2022-08-07T03:15:30.251Z,25.60
2022-08-07T03:18:39.690Z,22.20
2022-08-07T03:21:41.760Z,21.00
2022-08-07T03:24:47.751Z,23.00
2022-08-07T03:28:08.770Z,24.80
2022-08-07T03:31:24.569Z,25.00
2022-08-07T03:34:27.156Z,24.80
2022-08-07T03:37:32.631Z,21.20
2022-08-07T03:40:36.169Z,19.40
2022-08-07T03:43:38.676Z,25.20
2022-08-07T03:47:14.105Z,26.00
2022-08-07T03:50:00.877Z,25.20
2022-08-07T03:53:03.533Z,17.00
2022-08-07T03:56:04.076Z,19.00
2022-08-07T03:59:10.014Z,20.00
2022-08-07T04:02:12.868Z,25.20
2022-08-07T04:05:12.015Z,17.80
2022-08-07T04:08:11.881Z,20.20
2022-08-07T04:12:24.481Z,17.40
2022-08-07T04:14:38.187Z,19.00
2022-08-07T04:18:56.894Z,21.60
2022-08-07T04:20:55.142Z,19.80
2022-08-07T04:24:05.723Z,22.00
2022-08-07T04:27:05.778Z,13.00
2022-08-07T04:30:21.709Z,24.20
2022-08-07T04:33:35.338Z,18.00
2022-08-07T04:36:34.441Z,17.80
2022-08-07T04:39:35.948Z,14.40
2022-08-07T04:42:34.788Z,23.40
2022-08-07T04:46:01.641Z,19.20
2022-08-07T04:49:25.509Z,17.60
2022-08-07T04:52:51.426Z,17.60
2022-08-07T04:58:11.332Z,21.00
2022-08-07T05:00:12.344Z,20.00
2022-08-07T05:02:53.189Z,17.80
2022-08-07T05:05:58.227Z,19.60
2022-08-07T05:09:09.712Z,24.20
2022-08-07T05:12:15.514Z,23.60
2022-08-07T05:15:27.316Z,25.40
2022-08-07T05:18:32.125Z,24.80
2022-08-07T05:22:00.677Z,24.60
2022-08-07T05:24:48.749Z,26.40
2022-08-07T05:28:03.239Z,27.60
2022-08-07T05:31:05.075Z,26.20
2022-08-07T05:34:05.704Z,24.40
2022-08-07T05:37:08.610Z,27.00
2022-08-07T05:40:18.782Z,24.80
2022-08-07T05:43:18.569Z,29.00
2022-08-07T05:46:17.217Z,26.40
2022-08-07T05:49:15.645Z,31.60
2022-08-07T05:52:20.158Z,38.00
2022-08-07T05:55:18.699Z,33.00
2022-08-07T05:58:16.714Z,37.80
2022-08-07T06:01:15.144Z,29.60
2022-08-07T06:04:15.282Z,33.60
2022-08-07T06:07:22.778Z,36.40
2022-08-07T06:10:21.765Z,31.60
2022-08-07T06:14:11.988Z,31.80
2022-08-07T06:16:38.849Z,28.60
2022-08-07T06:19:57.655Z,30.60
2022-08-07T06:23:25.216Z,29.00
2022-08-07T06:26:14.808Z,25.00
2022-08-07T06:29:12.592Z,31.20
2022-08-07T06:32:10.030Z,35.60
2022-08-07T06:35:17.719Z,31.40
2022-08-07T06:38:20.483Z,33.00
2022-08-07T06:42:00.504Z,34.20
2022-08-07T06:45:21.257Z,31.00
2022-08-07T06:48:25.431Z,34.40
2022-08-07T06:51:33.579Z,23.40
2022-08-07T06:55:33.829Z,28.60
2022-08-07T06:57:59.287Z,31.60
2022-08-07T07:00:59.686Z,29.20
2022-08-07T07:04:07.019Z,29.40
2022-08-07T07:07:19.366Z,26.00
2022-08-07T07:10:35.384Z,29.20
2022-08-07T07:13:58.440Z,16.20
2022-08-07T07:16:59.318Z,29.80
2022-08-07T07:19:59.169Z,29.60
2022-08-07T07:24:05.991Z,25.20
2022-08-07T07:26:35.622Z,26.80
2022-08-07T07:29:55.815Z,28.00
2022-08-07T07:32:54.754Z,22.00
2022-08-07T07:36:04.430Z,30.00
2022-08-07T07:39:03.192Z,25.40
2022-08-07T07:42:13.037Z,21.20
2022-08-07T07:45:11.195Z,18.40
2022-08-07T07:48:35.136Z,23.40
2022-08-07T07:51:32.141Z,28.80
2022-08-07T07:54:50.855Z,24.60
2022-08-07T07:57:53.770Z,21.20
2022-08-07T08:00:55.035Z,19.60
2022-08-07T08:04:05.820Z,25.60
2022-08-07T08:07:07.743Z,20.80
2022-08-07T08:10:05.873Z,20.40
2022-08-07T08:13:03.006Z,21.40
2022-08-07T08:16:01.932Z,21.40
2022-08-07T08:19:00.442Z,18.20
2022-08-07T08:22:32.652Z,14.40
2022-08-07T08:25:50.930Z,18.60
2022-08-07T08:28:48.027Z,14.80
2022-08-07T08:31:59.296Z,16.00
2022-08-07T08:35:12.619Z,10.80
2022-08-07T08:38:13.998Z,13.60
2022-08-07T08:41:31.445Z,20.20
2022-08-07T08:45:06.051Z,12.00
2022-08-07T08:48:32.445Z,14.60
2022-08-07T08:52:14.208Z,13.40
2022-08-07T08:55:55.143Z,14.60
2022-08-07T08:59:48.590Z,12.00
2022-08-07T09:02:56.029Z,12.40
2022-08-07T09:05:58.978Z,9.40
2022-08-07T09:09:09.704Z,12.60
2022-08-07T09:12:31.572Z,12.40
2022-08-07T09:16:24.186Z,9.40
2022-08-07T09:19:51.753Z,9.60
2022-08-07T09:24:30.994Z,6.60
2022-08-07T09:25:59.029Z,8.40
2022-08-07T09:30:01.427Z,7.00
2022-08-07T09:32:29.141Z,9.40
2022-08-07T09:36:03.839Z,7.20
2022-08-07T09:39:54.303Z,6.60
2022-08-07T09:42:58.672Z,7.40
2022-08-07T09:47:55.261Z,8.60
2022-08-07T09:50:19.189Z,7.60
2022-08-07T09:53:18.417Z,6.60
2022-08-07T09:56:37.436Z,6.80
2022-08-07T09:59:44.740Z,5.00
2022-08-07T10:03:07.872Z,4.00
2022-08-07T10:06:24.548Z,5.00
2022-08-07T10:10:00.683Z,5.00
2022-08-07T10:13:55.236Z,6.00
2022-08-07T10:17:14.065Z,7.00
2022-08-07T10:20:30.730Z,5.80
2022-08-07T10:24:08.580Z,6.80
2022-08-07T10:27:46.987Z,6.00
2022-08-07T10:31:11.155Z,6.40
2022-08-07T10:34:36.237Z,4.20
2022-08-07T10:38:09.499Z,6.00
2022-08-07T10:41:46.588Z,5.60
2022-08-07T10:44:59.788Z,5.00
2022-08-07T10:48:24.917Z,5.00
2022-08-07T10:51:57.770Z,5.60
2022-08-07T10:55:27.142Z,6.00
2022-08-07T10:58:59.616Z,7.00
2022-08-07T11:02:05.006Z,5.20
2022-08-07T11:05:35.677Z,8.00
2022-08-07T11:08:52.927Z,6.60
2022-08-07T11:12:01.441Z,7.20
2022-08-07T11:15:03.272Z,6.20
2022-08-07T11:18:25.377Z,7.40
2022-08-07T11:21:43.102Z,7.00
2022-08-07T11:24:45.987Z,6.00
2022-08-07T11:28:03.222Z,7.20
2022-08-07T11:31:22.082Z,9.00
2022-08-07T11:34:24.874Z,5.20
2022-08-07T11:38:08.889Z,6.20
2022-08-07T11:41:08.280Z,8.20
2022-08-07T11:44:38.991Z,5.40
2022-08-07T11:47:59.167Z,8.00
2022-08-07T11:51:41.172Z,6.00
2022-08-07T11:55:02.773Z,7.40
2022-08-07T11:58:36.172Z,5.20
2022-08-07T12:01:59.679Z,6.00
2022-08-07T12:05:15.660Z,8.20
2022-08-07T12:08:44.334Z,8.20
2022-08-07T12:12:10.205Z,6.40
2022-08-07T12:16:05.079Z,7.00
2022-08-07T12:18:56.321Z,7.00
2022-08-07T12:22:37.790Z,7.80
2022-08-07T12:26:05.447Z,5.20
2022-08-07T12:29:37.627Z,5.00
2022-08-07T12:32:45.264Z,6.40
2022-08-07T12:35:57.811Z,6.20
2022-08-07T12:38:57.268Z,6.40
2022-08-07T12:41:54.931Z,5.80
2022-08-07T12:44:52.029Z,5.40
2022-08-07T12:47:57.820Z,4.60
2022-08-07T12:51:17.598Z,6.00
2022-08-07T12:54:37.820Z,5.00
2022-08-07T12:57:39.088Z,5.75
2022-08-07T13:01:00.367Z,4.50
2022-08-07T13:04:32.615Z,3.75
2022-08-07T13:08:22.648Z,4.00
2022-08-07T13:12:02.443Z,3.20
2022-08-07T13:15:37.216Z,4.00
2022-08-07T13:18:38.804Z,3.50
2022-08-07T13:21:57.288Z,4.60
2022-08-07T13:25:09.494Z,3.75
2022-08-07T13:28:18.282Z,4.00
2022-08-07T13:32:00.187Z,4.50
2022-08-07T13:36:00.246Z,5.75
2022-08-07T13:39:13.171Z,5.00
2022-08-07T13:42:24.809Z,5.50
2022-08-07T13:46:11.712Z,3.75
2022-08-07T13:48:51.892Z,3.25
2022-08-07T13:52:04.851Z,4.00
2022-08-07T13:55:26.268Z,4.00
2022-08-07T13:58:56.633Z,5.00
2022-08-07T14:02:03.713Z,1.50
2022-08-07T14:05:12.093Z,4.50
2022-08-07T14:08:09.333Z,4.00
2022-08-07T14:11:17.513Z,4.80
2022-08-07T14:14:16.612Z,4.80
2022-08-07T14:18:15.506Z,6.40
2022-08-07T14:20:41.051Z,6.00
2022-08-07T14:24:00.304Z,4.00
2022-08-07T14:27:00.169Z,5.25
2022-08-07T14:30:07.504Z,6.25
2022-08-07T14:33:08.183Z,5.00
2022-08-07T14:36:08.786Z,5.25
2022-08-07T14:39:06.541Z,5.50
2022-08-07T14:42:18.610Z,5.00
2022-08-07T14:45:21.170Z,5.00
2022-08-07T14:48:37.110Z,4.00
2022-08-07T14:52:02.833Z,5.75
2022-08-07T14:54:54.238Z,4.50
2022-08-07T14:57:54.886Z,7.25
2022-08-07T15:00:55.933Z,6.50
2022-08-07T15:04:05.344Z,6.75
2022-08-07T15:07:03.413Z,5.00
2022-08-07T15:10:26.267Z,7.00
2022-08-07T15:13:25.526Z,6.50
2022-08-07T15:16:55.042Z,6.00
2022-08-07T15:20:33.723Z,4.00
2022-08-07T15:25:04.026Z,7.00
2022-08-07T15:26:44.981Z,6.50
2022-08-07T15:33:03.959Z,8.00
2022-08-07T15:36:05.257Z,3.75
2022-08-07T15:39:04.843Z,4.75
2022-08-07T15:42:43.486Z,6.00
2022-08-07T15:49:03.805Z,5.00
2022-08-07T15:52:06.899Z,7.50
2022-08-07T15:55:11.423Z,4.50
2022-08-07T15:58:19.291Z,4.00
2022-08-07T16:01:38.984Z,2.75
2022-08-07T16:04:37.364Z,3.00
2022-08-07T16:08:30.620Z,5.00
2022-08-07T16:11:04.748Z,4.00
2022-08-07T16:14:37.761Z,4.50
2022-08-07T16:18:02.732Z,5.00
2022-08-07T16:22:01.488Z,4.00
2022-08-07T16:24:57.026Z,5.00
2022-08-07T16:28:11.465Z,5.00
2022-08-07T16:31:51.312Z,3.00
2022-08-07T16:35:56.337Z,5.50
2022-08-07T16:39:01.004Z,4.50
2022-08-07T16:42:15.627Z,7.50
2022-08-07T16:46:33.514Z,10.00
2022-08-07T16:50:28.885Z,10.20
2022-08-07T16:53:14.801Z,6.25
2022-08-07T16:56:44.848Z,9.00
2022-08-07T17:00:15.086Z,9.00
2022-08-07T17:03:17.250Z,8.25
2022-08-07T17:06:31.398Z,9.00
2022-08-07T17:10:06.764Z,8.25
2022-08-07T17:13:20.337Z,6.50
2022-08-07T17:16:29.323Z,6.75
2022-08-07T17:20:02.310Z,7.00
2022-08-07T17:23:01.605Z,7.25
2022-08-07T17:26:23.928Z,10.00
2022-08-07T17:30:15.641Z,7.50
2022-08-07T17:33:00.736Z,6.00
2022-08-07T17:36:20.280Z,7.00
2022-08-07T17:39:22.227Z,5.75
2022-08-07T17:42:59.342Z,6.00
2022-08-07T17:46:09.247Z,5.00
2022-08-07T17:49:44.816Z,4.75
2022-08-07T17:52:59.074Z,6.75
2022-08-07T17:56:06.429Z,3.50
2022-08-07T17:59:35.781Z,6.00
2022-08-07T18:02:40.100Z,7.50
2022-08-07T18:06:16.814Z,5.00
2022-08-07T18:10:04.779Z,7.25
2022-08-07T18:13:01.474Z,10.00
2022-08-07T18:16:10.127Z,7.25
2022-08-07T18:21:11.945Z,6.50
2022-08-07T18:23:02.355Z,6.00
2022-08-07T18:26:05.417Z,7.75
2022-08-07T18:30:08.389Z,6.60
2022-08-07T18:32:54.044Z,6.80
2022-08-07T18:36:14.073Z,4.80
2022-08-07T18:40:06.916Z,8.00
2022-08-07T18:42:57.435Z,2.40
2022-08-07T18:46:25.006Z,7.60
2022-08-07T18:50:32.401Z,6.40
2022-08-07T18:52:53.777Z,9.00
2022-08-07T18:56:30.809Z,7.40
2022-08-07T18:59:58.520Z,9.40
2022-08-07T19:03:12.303Z,6.20
2022-08-07T19:06:33.722Z,6.20
2022-08-07T19:09:57.510Z,7.80
2022-08-07T19:13:11.705Z,7.60
2022-08-07T19:17:06.088Z,7.00
2022-08-07T19:20:03.866Z,7.00
2022-08-07T19:23:18.454Z,6.00
2022-08-07T19:26:24.369Z,6.00
2022-08-07T19:31:01.229Z,7.00
2022-08-07T19:32:46.181Z,6.80
2022-08-07T19:35:44.972Z,8.80
2022-08-07T19:38:53.007Z,6.40
2022-08-07T19:42:05.852Z,8.20
2022-08-07T19:45:08.698Z,6.00
2022-08-07T19:48:06.623Z,9.40
2022-08-07T19:51:19.911Z,8.80
2022-08-07T19:54:29.817Z,7.20
2022-08-07T19:58:02.107Z,7.40
2022-08-07T20:00:56.371Z,8.40
2022-08-07T20:03:53.821Z,7.00
2022-08-07T20:06:52.775Z,7.40
2022-08-07T20:10:37.865Z,5.40
2022-08-07T20:13:23.441Z,6.20
2022-08-07T20:16:35.890Z,6.00
2022-08-07T20:19:49.665Z,8.20
2022-08-07T20:22:51.055Z,6.60
2022-08-07T20:25:50.898Z,6.00
2022-08-07T20:28:51.342Z,5.40
2022-08-07T20:31:48.632Z,5.80
2022-08-07T20:34:51.147Z,7.00
2022-08-07T20:37:58.271Z,7.80
2022-08-07T20:41:03.961Z,7.40
2022-08-07T20:44:02.591Z,6.00
2022-08-07T20:47:05.923Z,7.20
2022-08-07T20:50:07.262Z,8.00
2022-08-07T20:53:05.623Z,6.60
2022-08-07T20:56:03.175Z,8.20
2022-08-07T20:59:02.917Z,6.20
2022-08-07T21:02:04.406Z,5.00
2022-08-07T21:05:18.406Z,7.00
2022-08-07T21:08:41.164Z,8.00
2022-08-07T21:11:46.321Z,7.20
2022-08-07T21:14:53.606Z,9.80
2022-08-07T21:18:09.629Z,7.20
2022-08-07T21:21:08.777Z,6.00
2022-08-07T21:24:10.204Z,5.40
2022-08-07T21:27:26.725Z,6.60
2022-08-07T21:31:10.455Z,8.00
2022-08-07T21:34:13.302Z,9.00
2022-08-07T21:37:22.653Z,7.80
2022-08-07T21:40:29.051Z,10.40
2022-08-07T21:43:55.498Z,8.60
2022-08-07T21:46:57.865Z,8.00
2022-08-07T21:50:01.813Z,9.20
2022-08-07T21:53:13.053Z,11.00
2022-08-07T21:56:36.242Z,9.00
2022-08-07T22:00:05.225Z,9.00
2022-08-07T22:03:30.929Z,9.20
2022-08-07T22:06:31.511Z,9.00
2022-08-07T22:09:37.971Z,7.60
2022-08-07T22:12:52.065Z,7.20
2022-08-07T22:16:42.993Z,8.20
2022-08-07T22:19:29.898Z,12.80
2022-08-07T22:22:36.734Z,10.40
2022-08-07T22:25:53.803Z,8.00
2022-08-07T22:29:08.985Z,9.00
2022-08-07T22:33:01.450Z,10.80
2022-08-07T22:36:00.978Z,9.40
2022-08-07T22:39:29.800Z,13.40
2022-08-07T22:42:33.809Z,8.60
2022-08-07T22:46:43.056Z,11.20
2022-08-07T22:49:23.323Z,12.80
2022-08-07T22:52:37.702Z,8.80
2022-08-07T22:55:48.479Z,11.40
2022-08-07T22:59:02.388Z,11.20
2022-08-07T23:02:27.505Z,11.20
2022-08-07T23:06:07.182Z,10.40
2022-08-07T23:10:05.005Z,12.00
2022-08-07T23:12:48.756Z,13.20
2022-08-07T23:16:43.308Z,12.40
2022-08-07T23:20:40.548Z,9.40
2022-08-07T23:24:11.831Z,12.80
2022-08-07T23:27:35.468Z,8.00
2022-08-07T23:31:18.776Z,11.60
2022-08-07T23:34:39.962Z,9.20
2022-08-07T23:38:19.271Z,10.40
2022-08-07T23:42:04.418Z,10.60
2022-08-07T23:45:15.043Z,11.20
2022-08-07T23:49:02.276Z,11.00
2022-08-07T23:53:01.141Z,11.20
2022-08-07T23:55:52.025Z,9.20
